createdAt,value
2018-12-27T00:02:54.980Z,14.23
2018-12-27T00:07:56.575Z,14.27
2018-12-27T00:12:57.679Z,10.30
2018-12-27T00:17:58.772Z,8.77
2018-12-27T00:22:59.869Z,7.10
2018-12-27T00:28:00.971Z,8.53
2018-12-27T00:33:03.271Z,7.10
2018-12-27T00:38:04.764Z,7.87
2018-12-27T00:43:05.913Z,10.00
2018-12-27T00:48:07.091Z,9.33
2018-12-27T00:53:08.187Z,11.77
2018-12-27T00:58:09.308Z,12.37
2018-12-27T01:03:11.333Z,11.43
2018-12-27T01:08:12.817Z,12.37
2018-12-27T01:13:13.908Z,11.43
2018-12-27T01:18:14.994Z,8.60
2018-12-27T01:23:16.102Z,9.17
2018-12-27T01:28:17.355Z,8.57
2018-12-27T01:33:19.018Z,8.13
2018-12-27T01:38:20.231Z,4.57
2018-12-27T01:43:21.334Z,9.87
2018-12-27T01:48:22.447Z,8.50
2018-12-27T01:53:23.535Z,9.10
2018-12-27T01:58:24.651Z,8.37
2018-12-27T02:03:26.615Z,6.63
2018-12-27T02:08:27.936Z,7.40
2018-12-27T02:13:29.030Z,7.90
2018-12-27T02:18:30.123Z,6.97
2018-12-27T02:23:31.215Z,5.53
2018-12-27T02:28:32.435Z,3.67
2018-12-27T02:33:35.564Z,6.70
2018-12-27T02:38:36.564Z,3.83
2018-12-27T02:43:37.769Z,4.97
2018-12-27T02:48:38.871Z,7.93
2018-12-27T02:53:39.971Z,10.57
2018-12-27T02:58:41.090Z,8.53
2018-12-27T03:03:43.970Z,8.60
2018-12-27T03:08:45.186Z,6.83
2018-12-27T03:13:46.279Z,12.27
2018-12-27T03:18:47.385Z,8.37
2018-12-27T03:23:48.468Z,6.77
2018-12-27T03:28:49.583Z,6.00
2018-12-27T03:33:52.729Z,6.27
2018-12-27T03:38:53.684Z,6.07
2018-12-27T03:43:54.776Z,6.20
2018-12-27T03:48:55.896Z,3.80
2018-12-27T03:53:56.986Z,4.50
2018-12-27T03:58:58.095Z,2.90
2018-12-27T04:04:01.493Z,2.20
2018-12-27T04:09:03.896Z,3.93
2018-12-27T04:14:04.990Z,4.03
2018-12-27T04:19:06.097Z,2.83
2018-12-27T04:24:07.591Z,3.40
2018-12-27T04:29:08.716Z,3.03
2018-12-27T04:34:09.925Z,3.13
2018-12-27T04:39:11.112Z,3.07
2018-12-27T04:44:12.314Z,3.30
2018-12-27T04:49:13.431Z,5.37
2018-12-27T04:54:14.537Z,5.47
2018-12-27T04:59:15.751Z,2.83
2018-12-27T05:04:18.321Z,2.37
2018-12-27T05:09:19.744Z,3.03
2018-12-27T05:14:20.861Z,2.00
2018-12-27T05:19:21.954Z,3.17
2018-12-27T05:24:23.066Z,3.73
2018-12-27T05:29:24.271Z,7.90
2018-12-27T05:34:26.392Z,3.03
2018-12-27T05:39:27.864Z,5.70
2018-12-27T05:44:28.967Z,4.47
2018-12-27T05:49:30.062Z,3.07
2018-12-27T05:54:31.159Z,2.63
2018-12-27T05:59:32.311Z,2.07
2018-12-27T06:04:34.109Z,1.77
2018-12-27T06:09:35.423Z,3.03
2018-12-27T06:14:36.535Z,2.30
2018-12-27T06:19:37.623Z,3.67
2018-12-27T06:24:38.722Z,4.03
2018-12-27T06:29:39.823Z,4.83
2018-12-27T06:34:41.431Z,5.93
2018-12-27T06:39:43.034Z,4.67
2018-12-27T06:44:44.154Z,6.53
2018-12-27T06:49:45.353Z,5.27
2018-12-27T06:54:48.958Z,6.27
2018-12-27T06:59:50.103Z,7.20
2018-12-27T07:04:51.198Z,5.53
2018-12-27T07:09:52.291Z,6.43
2018-12-27T07:14:53.392Z,7.47
2018-12-27T07:19:54.487Z,5.03
2018-12-27T07:24:55.569Z,10.73
2018-12-27T07:29:56.691Z,16.00
2018-12-27T07:34:57.812Z,20.00
2018-12-27T07:39:59.006Z,20.27
2018-12-27T07:45:00.224Z,16.20
2018-12-27T07:50:01.423Z,18.53
2018-12-27T07:55:03.536Z,18.00
2018-12-27T08:00:05.174Z,18.07
2018-12-27T08:05:06.454Z,17.57
2018-12-27T08:10:07.563Z,17.27
2018-12-27T08:15:08.878Z,19.93
2018-12-27T08:20:09.967Z,18.73
2018-12-27T08:25:11.076Z,16.23
2018-12-27T08:30:14.099Z,22.90
2018-12-27T08:35:15.220Z,19.43
2018-12-27T08:40:16.315Z,16.67
2018-12-27T08:45:17.424Z,13.83
2018-12-27T08:50:18.519Z,9.80
2018-12-27T08:55:19.763Z,10.70
2018-12-27T09:00:21.012Z,10.53
2018-12-27T09:05:22.104Z,11.03
2018-12-27T09:10:23.214Z,12.30
2018-12-27T09:15:24.314Z,13.03
2018-12-27T09:20:25.410Z,12.33
2018-12-27T09:25:26.514Z,12.83
2018-12-27T09:30:27.635Z,11.00
2018-12-27T09:35:28.754Z,11.70
2018-12-27T09:40:29.984Z,13.60
2018-12-27T09:45:31.271Z,11.50
2018-12-27T09:50:32.375Z,13.53
2018-12-27T09:55:33.464Z,11.97
2018-12-27T10:00:34.595Z,13.87
2018-12-27T10:05:35.694Z,13.90
2018-12-27T10:10:36.796Z,13.97
2018-12-27T10:15:37.935Z,15.07
2018-12-27T10:20:39.104Z,14.77
2018-12-27T10:25:40.207Z,15.90
2018-12-27T10:30:41.602Z,16.83
2018-12-27T10:35:42.795Z,16.87
2018-12-27T10:40:43.892Z,14.23
2018-12-27T10:45:44.998Z,18.77
2018-12-27T10:50:46.089Z,15.97
2018-12-27T10:55:47.191Z,16.03
2018-12-27T11:00:49.409Z,13.60
2018-12-27T11:05:50.703Z,18.40
2018-12-27T11:10:54.584Z,15.27
2018-12-27T11:15:55.716Z,18.27
2018-12-27T11:20:56.816Z,18.03
2018-12-27T11:25:57.919Z,16.93
2018-12-27T11:30:59.115Z,18.73
2018-12-27T11:36:00.222Z,19.20
2018-12-27T11:41:01.338Z,19.13
2018-12-27T11:46:02.456Z,15.73
2018-12-27T11:51:03.556Z,13.50
2018-12-27T11:56:04.661Z,15.03
2018-12-27T12:01:05.920Z,15.43
2018-12-27T12:06:07.036Z,17.00
2018-12-27T12:11:08.289Z,17.83
2018-12-27T12:16:09.548Z,18.47
2018-12-27T12:21:10.759Z,17.13
2018-12-27T12:26:11.952Z,18.63
2018-12-27T12:31:13.073Z,14.70
2018-12-27T12:36:14.182Z,12.93
2018-12-27T12:41:15.409Z,14.10
2018-12-27T12:46:16.598Z,9.67
2018-12-27T12:51:17.792Z,14.53
2018-12-27T12:56:18.995Z,13.03
2018-12-27T13:01:20.260Z,13.03
2018-12-27T13:06:21.365Z,12.83
2018-12-27T13:11:22.459Z,14.60
2018-12-27T13:16:23.572Z,15.33
2018-12-27T13:21:24.679Z,16.23
2018-12-27T13:26:25.874Z,27.80
2018-12-27T13:31:27.011Z,17.40
2018-12-27T13:36:28.140Z,15.50
2018-12-27T13:41:29.238Z,16.87
2018-12-27T13:46:30.426Z,19.23
2018-12-27T13:51:31.575Z,16.03
2018-12-27T13:56:32.699Z,19.63
2018-12-27T14:01:33.846Z,22.97
2018-12-27T14:06:35.028Z,24.70
2018-12-27T14:11:36.136Z,23.00
2018-12-27T14:16:37.251Z,29.50
2018-12-27T14:21:38.748Z,44.60
2018-12-27T14:26:39.875Z,27.33
2018-12-27T14:31:40.974Z,20.00
2018-12-27T14:36:42.069Z,16.30
2018-12-27T14:41:43.165Z,17.40
2018-12-27T14:46:44.288Z,20.33
2018-12-27T14:51:45.472Z,22.60
2018-12-27T14:56:46.577Z,24.50
2018-12-27T15:01:47.719Z,22.80
2018-12-27T15:06:48.902Z,16.00
2018-12-27T15:11:50.221Z,17.47
2018-12-27T15:16:51.320Z,14.43
2018-12-27T15:21:52.414Z,21.00
2018-12-27T15:26:53.513Z,20.77
2018-12-27T15:31:54.639Z,45.33
2018-12-27T15:36:55.752Z,68.27
2018-12-27T15:41:56.846Z,34.67
2018-12-27T15:46:57.956Z,30.87
2018-12-27T15:51:59.051Z,24.00
2018-12-27T15:57:00.176Z,20.23
2018-12-27T16:02:01.312Z,17.33
2018-12-27T16:07:02.745Z,17.97
2018-12-27T16:12:03.856Z,21.67
2018-12-27T16:17:04.984Z,35.33
2018-12-27T16:22:06.091Z,36.90
2018-12-27T16:27:08.381Z,33.87
2018-12-27T16:32:09.714Z,30.37
2018-12-27T16:37:10.847Z,42.50
2018-12-27T16:42:12.323Z,42.27
2018-12-27T16:47:13.423Z,35.60
2018-12-27T16:52:14.529Z,27.43
2018-12-27T16:57:19.879Z,25.37
2018-12-27T17:02:19.483Z,28.10
2018-12-27T17:07:20.683Z,35.30
2018-12-27T17:12:21.783Z,32.00
2018-12-27T17:17:22.893Z,28.10
2018-12-27T17:22:23.992Z,31.00
2018-12-27T17:27:27.004Z,26.80
2018-12-27T17:32:28.217Z,19.07
2018-12-27T17:37:29.669Z,20.03
2018-12-27T17:42:30.815Z,21.13
2018-12-27T17:47:31.905Z,27.30
2018-12-27T17:52:33.009Z,23.30
2018-12-27T17:57:34.134Z,23.13
2018-12-27T18:02:35.242Z,24.23
2018-12-27T18:07:36.419Z,22.87
2018-12-27T18:12:37.683Z,25.20
2018-12-27T18:17:38.839Z,33.97
2018-12-27T18:22:40.158Z,37.37
2018-12-27T18:27:41.357Z,34.27
2018-12-27T18:32:42.533Z,37.53
2018-12-27T18:37:43.725Z,32.93
2018-12-27T18:42:44.844Z,37.77
2018-12-27T18:47:45.951Z,26.90
2018-12-27T18:52:47.057Z,30.07
2018-12-27T18:57:48.168Z,37.87
2018-12-27T19:02:49.319Z,25.73
2018-12-27T19:07:51.475Z,20.97
2018-12-27T19:13:06.991Z,21.90
2018-12-27T19:18:14.451Z,20.57
2018-12-27T19:23:15.538Z,20.80
2018-12-27T19:28:16.684Z,21.77
2018-12-27T19:33:17.817Z,21.33
2018-12-27T19:38:19.084Z,27.90
2018-12-27T19:43:20.238Z,24.13
2018-12-27T19:48:21.413Z,40.63
2018-12-27T19:53:22.614Z,41.47
2018-12-27T19:58:23.753Z,24.83
2018-12-27T20:03:24.903Z,22.63
2018-12-27T20:08:26.176Z,19.47
2018-12-27T20:13:27.287Z,23.93
2018-12-27T20:18:28.383Z,35.73
2018-12-27T20:23:29.500Z,22.37
2018-12-27T20:28:30.613Z,25.93
2018-12-27T20:33:31.854Z,24.63
2018-12-27T20:38:33.036Z,31.70
2018-12-27T20:43:34.138Z,36.53
2018-12-27T20:48:35.283Z,32.33
2018-12-27T20:53:36.382Z,29.47
2018-12-27T20:58:37.498Z,28.40
2018-12-27T21:03:38.608Z,31.63
2018-12-27T21:08:39.744Z,32.13
2018-12-27T21:13:41.067Z,26.43
2018-12-27T21:18:42.180Z,26.47
2018-12-27T21:23:43.312Z,21.27
2018-12-27T21:28:44.417Z,19.20
2018-12-27T21:33:45.551Z,19.23
2018-12-27T21:38:46.678Z,24.00
2018-12-27T21:43:47.771Z,27.50
2018-12-27T21:48:48.903Z,24.50
2018-12-27T21:53:50.006Z,18.43
2018-12-27T21:58:51.114Z,21.23
2018-12-27T22:03:52.249Z,19.80
2018-12-27T22:08:53.360Z,17.97
2018-12-27T22:13:54.463Z,15.87
2018-12-27T22:18:55.563Z,26.17
2018-12-27T22:23:59.032Z,25.93
2018-12-27T22:29:00.164Z,27.27
2018-12-27T22:34:01.283Z,70.33
2018-12-27T22:39:05.007Z,40.43
2018-12-27T22:44:06.087Z,33.00
2018-12-27T22:49:07.293Z,28.83
2018-12-27T22:54:08.388Z,27.57
2018-12-27T22:59:09.482Z,24.53
2018-12-27T23:04:10.734Z,25.63
2018-12-27T23:09:11.824Z,24.90
2018-12-27T23:14:12.934Z,19.93
2018-12-27T23:19:14.032Z,15.37
2018-12-27T23:24:15.140Z,16.40
2018-12-27T23:29:16.253Z,13.70
2018-12-27T23:34:17.360Z,14.90
2018-12-27T23:39:18.454Z,14.00
2018-12-27T23:44:19.554Z,14.40
2018-12-27T23:49:20.668Z,16.27
2018-12-27T23:54:21.760Z,12.57
2018-12-27T23:59:22.855Z,12.53
